createdAt,value
2022-08-20T00:02:16.427Z,21.92
2022-08-20T00:04:45.572Z,21.88
2022-08-20T00:07:14.674Z,21.87
2022-08-20T00:09:43.369Z,21.84
2022-08-20T00:12:12.949Z,21.83
2022-08-20T00:14:41.889Z,21.79
2022-08-20T00:17:11.654Z,21.76
2022-08-20T00:19:40.052Z,21.76
2022-08-20T00:22:08.602Z,21.74
2022-08-20T00:24:36.987Z,21.75
2022-08-20T00:27:05.582Z,21.74
2022-08-20T00:29:33.963Z,21.72
2022-08-20T00:32:02.378Z,21.68
2022-08-20T00:34:32.175Z,21.69
2022-08-20T00:37:00.542Z,21.68
2022-08-20T00:39:29.657Z,21.66
2022-08-20T00:41:58.117Z,21.64
2022-08-20T00:44:26.504Z,21.57
2022-08-20T00:46:55.631Z,21.52
2022-08-20T00:49:27.955Z,21.47
2022-08-20T00:52:02.158Z,21.41
2022-08-20T00:54:34.946Z,21.37
2022-08-20T00:57:07.683Z,21.32
2022-08-20T00:59:39.964Z,21.29
2022-08-20T01:02:12.668Z,21.28
2022-08-20T01:04:43.704Z,21.27
2022-08-20T01:07:13.469Z,21.25
2022-08-20T01:09:58.210Z,21.22
2022-08-20T01:12:30.346Z,21.16
2022-08-20T01:15:02.064Z,21.15
2022-08-20T01:17:36.200Z,21.14
2022-08-20T01:20:09.471Z,21.13
2022-08-20T01:23:02.982Z,21.11
2022-08-20T01:25:42.009Z,21.10
2022-08-20T01:28:11.515Z,21.10
2022-08-20T01:30:41.740Z,21.11
2022-08-20T01:33:10.367Z,21.11
2022-08-20T01:35:41.045Z,21.09
2022-08-20T01:38:10.632Z,21.09
2022-08-20T01:41:14.777Z,21.08
2022-08-20T01:43:43.577Z,21.06
2022-08-20T01:46:13.613Z,21.05
2022-08-20T01:48:43.259Z,21.05
2022-08-20T01:51:14.643Z,21.05
2022-08-20T01:53:45.344Z,21.05
2022-08-20T01:56:17.170Z,21.05
2022-08-20T01:58:49.414Z,21.04
2022-08-20T02:01:28.304Z,21.03
2022-08-20T02:03:57.668Z,21.02
2022-08-20T02:06:28.344Z,21.00
2022-08-20T02:08:59.248Z,20.98
2022-08-20T02:11:31.287Z,20.96
2022-08-20T02:13:59.762Z,20.95
2022-08-20T02:16:31.219Z,20.96
2022-08-20T02:19:03.378Z,20.97
2022-08-20T02:21:33.815Z,20.97
2022-08-20T02:24:02.751Z,20.97
2022-08-20T02:26:32.769Z,20.96
2022-08-20T02:29:01.314Z,20.98
2022-08-20T02:31:34.231Z,20.97
2022-08-20T02:34:18.170Z,20.97
2022-08-20T02:36:52.468Z,20.97
2022-08-20T02:39:20.826Z,20.96
2022-08-20T02:41:51.029Z,20.96
2022-08-20T02:44:20.618Z,20.97
2022-08-20T02:46:50.061Z,20.97
2022-08-20T02:49:19.327Z,20.96
2022-08-20T02:51:47.808Z,20.93
2022-08-20T02:54:17.735Z,20.93
2022-08-20T02:56:46.147Z,20.92
2022-08-20T02:59:19.613Z,20.92
2022-08-20T03:01:59.337Z,20.89
2022-08-20T03:04:29.587Z,20.88
2022-08-20T03:06:59.241Z,20.86
2022-08-20T03:09:27.698Z,20.84
2022-08-20T03:11:56.157Z,20.83
2022-08-20T03:14:26.368Z,20.81
2022-08-20T03:16:54.770Z,20.82
2022-08-20T03:19:23.358Z,20.80
2022-08-20T03:21:51.719Z,20.80
2022-08-20T03:24:20.609Z,20.80
2022-08-20T03:26:49.056Z,20.78
2022-08-20T03:29:18.623Z,20.78
2022-08-20T03:31:48.371Z,20.76
2022-08-20T03:34:16.751Z,20.76
2022-08-20T03:36:45.178Z,20.75
2022-08-20T03:39:13.546Z,20.75
2022-08-20T03:41:41.877Z,20.74
2022-08-20T03:44:10.312Z,20.75
2022-08-20T03:46:39.988Z,20.74
2022-08-20T03:49:09.746Z,20.74
2022-08-20T03:51:57.314Z,20.74
2022-08-20T03:54:31.519Z,20.75
2022-08-20T03:57:02.270Z,20.74
2022-08-20T03:59:32.964Z,20.74
2022-08-20T04:02:01.453Z,20.73
2022-08-20T04:04:31.291Z,20.73
2022-08-20T04:06:59.781Z,20.72
2022-08-20T04:09:28.880Z,20.71
2022-08-20T04:12:00.961Z,20.69
2022-08-20T04:14:29.462Z,20.68
2022-08-20T04:16:58.623Z,20.67
2022-08-20T04:19:30.138Z,20.65
2022-08-20T04:22:03.035Z,20.65
2022-08-20T04:24:32.048Z,20.63
2022-08-20T04:27:02.566Z,20.63
2022-08-20T04:29:32.040Z,20.62
2022-08-20T04:32:02.792Z,20.60
2022-08-20T04:34:35.546Z,20.59
2022-08-20T04:37:06.545Z,20.58
2022-08-20T04:40:06.033Z,20.58
2022-08-20T04:42:35.945Z,20.57
2022-08-20T04:45:05.669Z,20.57
2022-08-20T04:47:35.047Z,20.57
2022-08-20T04:50:03.505Z,20.57
2022-08-20T04:52:33.261Z,20.56
2022-08-20T04:55:02.063Z,20.55
2022-08-20T04:57:30.498Z,20.54
2022-08-20T05:00:49.158Z,20.56
2022-08-20T05:03:18.442Z,20.53
2022-08-20T05:05:47.788Z,20.51
2022-08-20T05:08:20.812Z,20.50
2022-08-20T05:10:49.182Z,20.48
2022-08-20T05:13:27.109Z,20.46
2022-08-20T05:15:56.607Z,20.43
2022-08-20T05:18:26.507Z,20.40
2022-08-20T05:21:05.975Z,20.38
2022-08-20T05:23:37.222Z,20.38
2022-08-20T05:26:07.493Z,20.37
2022-08-20T05:28:54.235Z,20.38
2022-08-20T05:31:30.883Z,20.36
2022-08-20T05:34:02.252Z,20.34
2022-08-20T05:36:30.807Z,20.33
2022-08-20T05:39:00.500Z,20.30
2022-08-20T05:41:30.565Z,20.30
2022-08-20T05:44:01.870Z,20.30
2022-08-20T05:46:32.215Z,20.30
2022-08-20T05:49:01.975Z,20.30
2022-08-20T05:51:31.217Z,20.27
2022-08-20T05:54:00.934Z,20.24
2022-08-20T05:56:31.112Z,20.21
2022-08-20T05:59:02.845Z,20.19
2022-08-20T06:01:32.016Z,20.16
2022-08-20T06:04:17.716Z,20.15
2022-08-20T06:06:47.523Z,20.13
2022-08-20T06:09:30.528Z,20.13
2022-08-20T06:12:02.908Z,20.12
2022-08-20T06:14:31.938Z,20.12
2022-08-20T06:17:05.847Z,20.12
2022-08-20T06:19:34.843Z,20.13
2022-08-20T06:22:08.683Z,20.11
2022-08-20T06:24:49.000Z,20.10
2022-08-20T06:27:20.255Z,20.08
2022-08-20T06:29:49.198Z,20.09
2022-08-20T06:32:18.146Z,20.10
2022-08-20T06:34:50.711Z,20.10
2022-08-20T06:37:23.172Z,20.10
2022-08-20T06:40:00.836Z,20.10
2022-08-20T06:42:29.596Z,20.09
2022-08-20T06:44:59.529Z,20.10
2022-08-20T06:47:27.841Z,20.11
2022-08-20T06:49:56.182Z,20.12
2022-08-20T06:52:51.613Z,20.13
2022-08-20T06:55:17.453Z,20.13
2022-08-20T06:57:47.808Z,20.15
2022-08-20T07:00:20.692Z,20.16
2022-08-20T07:02:49.052Z,20.15
2022-08-20T07:05:17.591Z,20.14
2022-08-20T07:07:47.443Z,20.14
2022-08-20T07:10:18.953Z,20.14
2022-08-20T07:12:50.528Z,20.12
2022-08-20T07:15:20.911Z,20.11
2022-08-20T07:17:56.402Z,20.11
2022-08-20T07:20:28.677Z,20.10
2022-08-20T07:22:57.185Z,20.06
2022-08-20T07:25:27.358Z,20.06
2022-08-20T07:28:01.887Z,20.06
2022-08-20T07:30:56.105Z,20.08
2022-08-20T07:33:26.309Z,20.09
2022-08-20T07:35:57.005Z,20.11
2022-08-20T07:38:27.317Z,20.13
2022-08-20T07:40:59.382Z,20.13
2022-08-20T07:43:28.314Z,20.14
2022-08-20T07:46:00.762Z,20.17
2022-08-20T07:48:32.534Z,20.19
2022-08-20T07:51:04.239Z,20.21
2022-08-20T07:53:36.016Z,20.21
2022-08-20T07:56:10.142Z,20.20
2022-08-20T07:58:42.504Z,20.21
2022-08-20T08:01:11.886Z,20.22
2022-08-20T08:03:49.922Z,20.24
2022-08-20T08:06:30.455Z,20.24
2022-08-20T08:09:04.713Z,20.24
2022-08-20T08:11:37.910Z,20.27
2022-08-20T08:14:08.090Z,20.26
2022-08-20T08:16:37.330Z,20.25
2022-08-20T08:19:09.923Z,20.23
2022-08-20T08:21:38.972Z,20.20
2022-08-20T08:24:07.485Z,20.19
2022-08-20T08:26:37.239Z,20.16
2022-08-20T08:29:07.527Z,20.15
2022-08-20T08:31:35.929Z,20.16
2022-08-20T08:34:04.395Z,20.17
2022-08-20T08:36:32.756Z,20.14
2022-08-20T08:39:01.166Z,20.13
2022-08-20T08:41:33.600Z,20.14
2022-08-20T08:44:08.149Z,20.12
2022-08-20T08:46:40.941Z,20.13
2022-08-20T08:49:12.885Z,20.12
2022-08-20T08:51:44.026Z,20.12
2022-08-20T08:54:17.650Z,20.11
2022-08-20T08:56:50.269Z,20.07
2022-08-20T08:59:23.087Z,20.05
2022-08-20T09:01:57.224Z,20.03
2022-08-20T09:04:31.666Z,20.03
2022-08-20T09:07:02.804Z,20.04
2022-08-20T09:09:33.911Z,20.06
2022-08-20T09:12:07.029Z,20.09
2022-08-20T09:14:37.707Z,20.12
2022-08-20T09:17:06.852Z,20.16
2022-08-20T09:19:35.435Z,20.20
2022-08-20T09:22:09.600Z,20.23
2022-08-20T09:24:38.045Z,20.25
2022-08-20T09:27:07.211Z,20.26
2022-08-20T09:29:37.505Z,20.27
2022-08-20T09:32:08.312Z,20.26
2022-08-20T09:34:39.395Z,20.27
2022-08-20T09:37:08.363Z,20.28
2022-08-20T09:39:36.941Z,20.29
2022-08-20T09:42:09.758Z,20.30
2022-08-20T09:44:40.083Z,20.34
2022-08-20T09:47:08.754Z,20.37
2022-08-20T09:49:37.808Z,20.40
2022-08-20T09:52:09.334Z,20.41
2022-08-20T09:54:46.259Z,20.45
2022-08-20T09:57:16.557Z,20.46
2022-08-20T09:59:49.717Z,20.45
2022-08-20T10:02:18.045Z,20.47
2022-08-20T10:04:46.453Z,20.48
2022-08-20T10:07:16.476Z,20.49
2022-08-20T10:09:45.065Z,20.52
2022-08-20T10:12:13.574Z,20.56
2022-08-20T10:14:41.966Z,20.59
2022-08-20T10:17:11.769Z,20.59
2022-08-20T10:19:40.210Z,20.60
2022-08-20T10:22:08.590Z,20.59
2022-08-20T10:24:37.006Z,20.56
2022-08-20T10:27:05.991Z,20.59
2022-08-20T10:29:35.114Z,20.59
2022-08-20T10:32:12.393Z,20.61
2022-08-20T10:34:41.708Z,20.61
2022-08-20T10:37:11.001Z,20.61
2022-08-20T10:39:39.685Z,20.61
2022-08-20T10:42:08.275Z,20.61
2022-08-20T10:44:36.623Z,20.63
2022-08-20T10:47:18.430Z,20.64
2022-08-20T10:49:47.363Z,20.66
2022-08-20T10:52:15.751Z,20.68
2022-08-20T10:54:44.236Z,20.71
2022-08-20T10:57:16.291Z,20.77
2022-08-20T10:59:46.796Z,20.78
2022-08-20T11:02:17.497Z,20.81
2022-08-20T11:04:46.187Z,20.85
2022-08-20T11:07:17.765Z,20.87
2022-08-20T11:09:48.203Z,20.90
2022-08-20T11:12:17.388Z,20.94
2022-08-20T11:14:46.140Z,20.96
2022-08-20T11:17:19.699Z,21.00
2022-08-20T11:19:48.158Z,21.05
2022-08-20T11:22:17.274Z,21.08
2022-08-20T11:24:47.115Z,21.11
2022-08-20T11:27:22.778Z,21.13
2022-08-20T11:29:51.545Z,21.15
2022-08-20T11:32:21.883Z,21.21
2022-08-20T11:34:50.552Z,21.29
2022-08-20T11:37:21.504Z,21.39
2022-08-20T11:39:50.150Z,21.45
2022-08-20T11:42:18.771Z,21.57
2022-08-20T11:44:47.209Z,21.70
2022-08-20T11:47:24.540Z,21.81
2022-08-20T11:49:58.548Z,21.92
2022-08-20T11:52:27.314Z,22.03
2022-08-20T11:54:57.914Z,22.11
2022-08-20T11:57:29.528Z,22.25
2022-08-20T12:00:00.573Z,22.40
2022-08-20T12:02:31.026Z,22.52
2022-08-20T12:04:59.939Z,22.66
2022-08-20T12:07:28.418Z,22.77
2022-08-20T12:09:56.842Z,22.82
2022-08-20T12:12:25.539Z,22.91
2022-08-20T12:14:55.529Z,23.04
2022-08-20T12:17:28.485Z,23.10
2022-08-20T12:19:59.830Z,23.19
2022-08-20T12:22:28.196Z,23.31
2022-08-20T12:24:56.658Z,23.35
2022-08-20T12:27:27.109Z,23.41
2022-08-20T12:29:57.334Z,23.44
2022-08-20T12:32:27.563Z,23.44
2022-08-20T12:34:56.286Z,23.46
2022-08-20T12:37:28.414Z,23.54
2022-08-20T12:39:58.866Z,23.64
2022-08-20T12:42:29.190Z,23.80
2022-08-20T12:44:57.609Z,23.95
2022-08-20T12:47:28.708Z,23.97
2022-08-20T12:50:00.341Z,24.00
2022-08-20T12:52:31.533Z,24.13
2022-08-20T12:55:00.506Z,24.33
2022-08-20T12:57:31.985Z,24.50
2022-08-20T13:00:03.701Z,24.69
2022-08-20T13:02:33.206Z,24.74
2022-08-20T13:05:04.960Z,24.85
2022-08-20T13:07:35.496Z,24.94
2022-08-20T13:10:06.577Z,24.92
2022-08-20T13:12:35.251Z,24.94
2022-08-20T13:15:03.679Z,25.02
2022-08-20T13:17:38.764Z,25.10
2022-08-20T13:20:11.614Z,25.18
2022-08-20T13:22:42.082Z,25.27
2022-08-20T13:25:11.857Z,25.41
2022-08-20T13:27:42.346Z,25.48
2022-08-20T13:30:14.932Z,25.53
2022-08-20T13:32:43.718Z,25.56
2022-08-20T13:35:13.821Z,25.63
2022-08-20T13:37:43.847Z,25.72
2022-08-20T13:40:13.030Z,25.80
2022-08-20T13:42:41.461Z,25.90
2022-08-20T13:45:11.313Z,25.86
2022-08-20T13:47:41.737Z,25.81
2022-08-20T13:50:12.922Z,25.81
2022-08-20T13:52:43.422Z,25.85
2022-08-20T13:55:15.226Z,25.94
2022-08-20T13:57:43.912Z,26.02
2022-08-20T14:00:16.425Z,25.99
2022-08-20T14:02:45.485Z,25.96
2022-08-20T14:05:17.809Z,25.96
2022-08-20T14:07:50.677Z,26.05
2022-08-20T14:10:22.428Z,26.22
2022-08-20T14:12:51.713Z,26.38
2022-08-20T14:15:20.201Z,26.53
2022-08-20T14:17:52.617Z,26.72
2022-08-20T14:20:23.566Z,26.84
2022-08-20T14:22:53.401Z,26.99
2022-08-20T14:25:23.955Z,26.99
2022-08-20T14:27:52.704Z,27.07
2022-08-20T14:30:24.400Z,27.17
2022-08-20T14:32:52.817Z,27.28
2022-08-20T14:35:21.344Z,27.47
2022-08-20T14:37:53.619Z,27.65
2022-08-20T14:40:24.257Z,27.83
2022-08-20T14:42:52.718Z,27.88
2022-08-20T14:45:22.320Z,27.70
2022-08-20T14:47:54.187Z,27.66
2022-08-20T14:50:26.014Z,27.70
2022-08-20T14:52:57.027Z,27.68
2022-08-20T14:55:28.045Z,27.53
2022-08-20T14:57:56.823Z,27.38
2022-08-20T15:00:27.540Z,27.17
2022-08-20T15:02:57.713Z,27.06
2022-08-20T15:05:26.777Z,27.09
2022-08-20T15:07:58.101Z,27.20
2022-08-20T15:10:30.864Z,27.18
2022-08-20T15:12:59.952Z,27.15
2022-08-20T15:15:28.338Z,27.26
2022-08-20T15:18:00.002Z,27.27
2022-08-20T15:20:31.010Z,27.23
2022-08-20T15:23:00.994Z,27.18
2022-08-20T15:25:36.913Z,27.19
2022-08-20T15:28:08.170Z,27.12
2022-08-20T15:30:38.030Z,27.03
2022-08-20T15:33:06.681Z,26.94
2022-08-20T15:35:35.267Z,26.85
2022-08-20T15:38:05.271Z,26.92
2022-08-20T15:40:34.041Z,27.03
2022-08-20T15:43:04.669Z,27.03
2022-08-20T15:45:33.963Z,26.75
2022-08-20T15:48:09.527Z,26.62
2022-08-20T15:50:55.144Z,26.69
2022-08-20T15:53:29.827Z,26.84
2022-08-20T15:56:05.066Z,26.94
2022-08-20T15:58:41.372Z,27.11
2022-08-20T16:01:24.410Z,27.25
2022-08-20T16:04:25.910Z,27.38
2022-08-20T16:07:01.425Z,27.50
2022-08-20T16:09:44.746Z,27.53
2022-08-20T16:12:20.565Z,27.59
2022-08-20T16:14:58.754Z,27.69
2022-08-20T16:17:38.916Z,27.64
2022-08-20T16:20:13.495Z,27.63
2022-08-20T16:22:44.730Z,27.71
2022-08-20T16:25:15.798Z,27.78
2022-08-20T16:27:54.040Z,27.89
2022-08-20T16:30:32.312Z,27.97
2022-08-20T16:33:04.241Z,27.98
2022-08-20T16:35:35.403Z,27.97
2022-08-20T16:38:12.346Z,27.84
2022-08-20T16:40:49.656Z,27.73
2022-08-20T16:43:24.018Z,27.61
2022-08-20T16:45:55.276Z,27.58
2022-08-20T16:48:26.442Z,27.64
2022-08-20T16:51:02.539Z,27.68
2022-08-20T16:53:31.218Z,27.66
2022-08-20T16:56:00.938Z,27.58
2022-08-20T16:58:29.353Z,27.60
2022-08-20T17:01:10.979Z,27.54
2022-08-20T17:03:41.046Z,27.58
2022-08-20T17:06:20.358Z,27.62
2022-08-20T17:08:50.893Z,27.61
2022-08-20T17:11:29.098Z,27.52
2022-08-20T17:14:10.866Z,27.34
2022-08-20T17:16:45.477Z,27.24
2022-08-20T17:19:19.348Z,27.09
2022-08-20T17:21:50.569Z,26.93
2022-08-20T17:24:25.931Z,26.75
2022-08-20T17:27:01.640Z,26.61
2022-08-20T17:29:32.346Z,26.45
2022-08-20T17:32:09.132Z,26.26
2022-08-20T17:34:45.352Z,26.04
2022-08-20T17:37:21.611Z,25.86
2022-08-20T17:39:52.958Z,25.75
2022-08-20T17:42:26.011Z,25.68
2022-08-20T17:45:00.614Z,25.60
2022-08-20T17:47:39.646Z,25.50
2022-08-20T17:50:14.211Z,25.42
2022-08-20T17:52:48.098Z,25.37
2022-08-20T17:55:16.607Z,25.30
2022-08-20T17:57:49.178Z,25.22
2022-08-20T18:00:23.377Z,25.14
2022-08-20T18:02:52.626Z,25.08
2022-08-20T18:05:22.946Z,25.02
2022-08-20T18:08:08.477Z,24.95
2022-08-20T18:10:43.460Z,24.89
2022-08-20T18:13:18.693Z,24.82
2022-08-20T18:15:53.604Z,24.75
2022-08-20T18:18:30.171Z,24.67
2022-08-20T18:21:21.634Z,24.59
2022-08-20T18:23:54.000Z,24.50
2022-08-20T18:26:28.228Z,24.44
2022-08-20T18:28:59.810Z,24.36
2022-08-20T18:31:32.390Z,24.29
2022-08-20T18:34:11.933Z,24.21
2022-08-20T18:36:42.392Z,24.13
2022-08-20T18:39:24.293Z,24.05
2022-08-20T18:42:00.061Z,23.97
2022-08-20T18:44:35.662Z,23.88
2022-08-20T18:47:08.335Z,23.81
2022-08-20T18:49:38.771Z,23.69
2022-08-20T18:52:12.599Z,23.61
2022-08-20T18:54:43.476Z,23.51
2022-08-20T18:57:21.581Z,23.40
2022-08-20T18:59:57.674Z,23.31
2022-08-20T19:02:29.843Z,23.21
2022-08-20T19:05:02.193Z,23.12
2022-08-20T19:07:48.375Z,23.03
2022-08-20T19:10:32.628Z,22.96
2022-08-20T19:13:20.512Z,22.88
2022-08-20T19:15:54.206Z,22.78
2022-08-20T19:18:27.518Z,22.70
2022-08-20T19:20:58.832Z,22.60
2022-08-20T19:23:30.358Z,22.52
2022-08-20T19:26:01.567Z,22.44
2022-08-20T19:28:35.848Z,22.38
2022-08-20T19:31:13.107Z,22.32
2022-08-20T19:33:44.052Z,22.27
2022-08-20T19:36:15.431Z,22.23
2022-08-20T19:38:46.255Z,22.19
2022-08-20T19:41:28.873Z,22.14
2022-08-20T19:44:00.697Z,22.11
2022-08-20T19:46:34.561Z,22.07
2022-08-20T19:49:24.819Z,22.01
2022-08-20T19:52:06.591Z,21.96
2022-08-20T19:54:47.881Z,21.88
2022-08-20T19:57:18.246Z,21.81
2022-08-20T19:59:56.034Z,21.75
2022-08-20T20:02:27.823Z,21.71
2022-08-20T20:04:58.105Z,21.65
2022-08-20T20:07:30.289Z,21.60
2022-08-20T20:09:59.566Z,21.56
2022-08-20T20:12:28.254Z,21.51
2022-08-20T20:14:56.921Z,21.46
2022-08-20T20:17:32.793Z,21.41
2022-08-20T20:20:03.645Z,21.34
2022-08-20T20:22:34.306Z,21.27
2022-08-20T20:25:08.686Z,21.21
2022-08-20T20:27:37.797Z,21.13
2022-08-20T20:30:09.197Z,21.08
2022-08-20T20:32:45.098Z,21.04
2022-08-20T20:35:26.581Z,20.97
2022-08-20T20:38:00.380Z,20.92
2022-08-20T20:40:35.932Z,20.87
2022-08-20T20:43:06.616Z,20.81
2022-08-20T20:45:37.841Z,20.77
2022-08-20T20:48:20.623Z,20.72
2022-08-20T20:50:50.987Z,20.66
2022-08-20T20:53:32.471Z,20.60
2022-08-20T20:56:28.981Z,20.55
2022-08-20T20:59:00.180Z,20.50
2022-08-20T21:01:46.146Z,20.44
2022-08-20T21:04:21.267Z,20.39
2022-08-20T21:06:50.142Z,20.32
2022-08-20T21:09:19.647Z,20.25
2022-08-20T21:11:48.685Z,20.19
2022-08-20T21:14:18.264Z,20.15
2022-08-20T21:16:46.701Z,20.09
2022-08-20T21:19:16.077Z,20.04
2022-08-20T21:21:45.850Z,20.00
2022-08-20T21:24:14.283Z,19.94
2022-08-20T21:26:42.840Z,19.88
2022-08-20T21:29:14.430Z,19.83
2022-08-20T21:31:45.140Z,19.78
2022-08-20T21:34:16.083Z,19.73
2022-08-20T21:36:46.477Z,19.68
2022-08-20T21:39:15.497Z,19.64
2022-08-20T21:41:45.143Z,19.57
2022-08-20T21:44:21.206Z,19.53
2022-08-20T21:46:50.466Z,19.48
2022-08-20T21:49:20.364Z,19.44
2022-08-20T21:51:50.918Z,19.39
2022-08-20T21:54:20.489Z,19.36
2022-08-20T21:56:52.955Z,19.30
2022-08-20T21:59:23.531Z,19.25
2022-08-20T22:01:52.629Z,19.23
2022-08-20T22:04:21.301Z,19.20
2022-08-20T22:06:51.045Z,19.17
2022-08-20T22:09:19.449Z,19.15
2022-08-20T22:11:53.858Z,19.15
2022-08-20T22:14:23.709Z,19.16
2022-08-20T22:16:52.066Z,19.16
2022-08-20T22:19:20.467Z,19.14
2022-08-20T22:21:49.418Z,19.14
2022-08-20T22:24:19.162Z,19.16
2022-08-20T22:26:47.530Z,19.18
2022-08-20T22:29:15.938Z,19.17
2022-08-20T22:31:44.963Z,19.20
2022-08-20T22:34:15.086Z,19.20
2022-08-20T22:36:43.576Z,19.17
2022-08-20T22:39:12.013Z,19.16
2022-08-20T22:41:41.812Z,19.15
2022-08-20T22:44:10.292Z,19.14
2022-08-20T22:46:46.435Z,19.08
2022-08-20T22:49:19.356Z,18.99
2022-08-20T22:51:47.728Z,18.93
2022-08-20T22:54:20.395Z,18.89
2022-08-20T22:56:51.060Z,18.84
2022-08-20T22:59:20.640Z,18.79
2022-08-20T23:01:49.411Z,18.76
2022-08-20T23:04:23.296Z,18.70
2022-08-20T23:06:51.858Z,18.67
2022-08-20T23:09:21.226Z,18.64
2022-08-20T23:11:51.585Z,18.61
2022-08-20T23:14:20.277Z,18.58
2022-08-20T23:16:57.115Z,18.56
2022-08-20T23:19:26.300Z,18.56
2022-08-20T23:21:54.681Z,18.54
2022-08-20T23:24:23.129Z,18.53
2022-08-20T23:26:53.587Z,18.51
2022-08-20T23:29:25.502Z,18.49
2022-08-20T23:31:55.638Z,18.49
2022-08-20T23:34:24.602Z,18.46
2022-08-20T23:36:54.125Z,18.44
2022-08-20T23:39:23.001Z,18.41
2022-08-20T23:41:53.041Z,18.41
2022-08-20T23:44:26.344Z,18.37
2022-08-20T23:46:56.541Z,18.35
2022-08-20T23:49:25.099Z,18.32
2022-08-20T23:51:53.613Z,18.30
2022-08-20T23:54:22.153Z,18.30
2022-08-20T23:56:52.053Z,18.29
2022-08-20T23:59:25.749Z,18.26
